createdAt,value
2022-11-23T00:01:30.313Z,93982.16
2022-11-23T00:04:01.488Z,93975.81
2022-11-23T00:06:28.678Z,93980.69
2022-11-23T00:08:55.253Z,93980.19
2022-11-23T00:11:24.584Z,93979.34
2022-11-23T00:13:51.872Z,93980.75
2022-11-23T00:16:27.340Z,93974.09
2022-11-23T00:18:56.144Z,93973.69
2022-11-23T00:21:24.760Z,93976.78
2022-11-23T00:23:51.503Z,93971.97
2022-11-23T00:26:19.567Z,93974.16
2022-11-23T00:28:46.476Z,93969.75
2022-11-23T00:31:16.336Z,93972.75
2022-11-23T00:33:48.654Z,93979.63
2022-11-23T00:36:16.376Z,93972.53
2022-11-23T00:38:44.458Z,93972.88
2022-11-23T00:41:14.300Z,93975.63
2022-11-23T00:43:41.380Z,93968.56
2022-11-23T00:46:13.587Z,93977.31
2022-11-23T00:48:40.344Z,93979.38
2022-11-23T00:51:09.939Z,93975.50
2022-11-23T00:53:36.740Z,93978.16
2022-11-23T00:56:03.726Z,93986.34
2022-11-23T00:58:30.412Z,93968.66
2022-11-23T01:01:16.590Z,93971.97
2022-11-23T01:03:49.177Z,93975.22
2022-11-23T01:06:22.425Z,93964.56
2022-11-23T01:08:51.299Z,93962.97
2022-11-23T01:11:19.089Z,93957.59
2022-11-23T01:13:46.473Z,93955.66
2022-11-23T01:16:24.223Z,93954.91
2022-11-23T01:18:55.770Z,93948.19
2022-11-23T01:21:23.349Z,93947.50
2022-11-23T01:23:50.044Z,93950.75
2022-11-23T01:26:17.113Z,93952.81
2022-11-23T01:28:44.448Z,93948.81
2022-11-23T01:31:14.302Z,93944.06
2022-11-23T01:33:41.492Z,93950.63
2022-11-23T01:36:17.554Z,93951.97
2022-11-23T01:38:47.776Z,93941.94
2022-11-23T01:41:21.987Z,93951.28
2022-11-23T01:43:50.128Z,93948.56
2022-11-23T01:46:17.704Z,93949.13
2022-11-23T01:49:04.352Z,93946.88
2022-11-23T01:51:39.344Z,93949.16
2022-11-23T01:54:12.920Z,93953.59
2022-11-23T01:56:46.094Z,93947.66
2022-11-23T01:59:19.268Z,93946.97
2022-11-23T02:01:46.394Z,93951.28
2022-11-23T02:04:20.312Z,93957.41
2022-11-23T02:06:48.211Z,93958.47
2022-11-23T02:09:17.281Z,93960.91
2022-11-23T02:11:43.886Z,93957.84
2022-11-23T02:14:11.450Z,93960.53
2022-11-23T02:16:38.691Z,93955.78
2022-11-23T02:19:21.485Z,93957.91
2022-11-23T02:21:52.765Z,93956.75
2022-11-23T02:24:30.800Z,93945.34
2022-11-23T02:26:58.116Z,93948.97
2022-11-23T02:29:28.237Z,93939.22
2022-11-23T02:31:55.431Z,93943.69
2022-11-23T02:34:22.176Z,93938.59
2022-11-23T02:36:54.864Z,93941.94
2022-11-23T02:39:32.478Z,93932.81
2022-11-23T02:42:00.181Z,93934.41
2022-11-23T02:44:53.571Z,93930.22
2022-11-23T02:47:20.205Z,93931.66
2022-11-23T02:49:48.451Z,93919.44
2022-11-23T02:52:17.296Z,93910.38
2022-11-23T02:54:44.599Z,93904.28
2022-11-23T02:57:11.212Z,93896.22
2022-11-23T02:59:37.817Z,93895.63
2022-11-23T03:02:05.928Z,93892.91
2022-11-23T03:04:33.224Z,93891.59
2022-11-23T03:07:00.208Z,93880.91
2022-11-23T03:09:26.862Z,93885.19
2022-11-23T03:11:54.577Z,93876.31
2022-11-23T03:14:21.616Z,93882.25
2022-11-23T03:16:48.409Z,93874.22
2022-11-23T03:19:15.415Z,93875.34
2022-11-23T03:21:42.028Z,93875.00
2022-11-23T03:24:08.697Z,93882.56
2022-11-23T03:26:35.414Z,93881.88
2022-11-23T03:29:02.024Z,93872.44
2022-11-23T03:31:28.645Z,93868.63
2022-11-23T03:33:55.252Z,93870.41
2022-11-23T03:36:21.873Z,93878.50
2022-11-23T03:38:48.503Z,93866.72
2022-11-23T03:41:15.101Z,93863.88
2022-11-23T03:43:41.709Z,93855.50
2022-11-23T03:46:08.305Z,93859.06
2022-11-23T03:48:34.920Z,93863.84
2022-11-23T03:51:01.613Z,93853.50
2022-11-23T03:53:28.340Z,93859.47
2022-11-23T03:55:54.960Z,93847.84
2022-11-23T03:58:21.706Z,93831.69
2022-11-23T04:00:48.331Z,93830.66
2022-11-23T04:03:14.997Z,93830.78
2022-11-23T04:05:41.569Z,93834.47
2022-11-23T04:08:09.144Z,93832.00
2022-11-23T04:10:35.872Z,93829.63
2022-11-23T04:13:18.937Z,93825.09
2022-11-23T04:15:55.232Z,93819.94
2022-11-23T04:18:21.818Z,93822.78
2022-11-23T04:20:48.484Z,93828.88
2022-11-23T04:23:15.067Z,93823.38
2022-11-23T04:25:41.748Z,93821.66
2022-11-23T04:28:08.689Z,93827.38
2022-11-23T04:30:35.524Z,93824.53
2022-11-23T04:33:02.345Z,93826.94
2022-11-23T04:35:29.024Z,93827.41
2022-11-23T04:37:55.666Z,93835.16
2022-11-23T04:40:22.312Z,93837.00
2022-11-23T04:42:48.925Z,93850.13
2022-11-23T04:45:15.580Z,93842.53
2022-11-23T04:47:42.188Z,93831.63
2022-11-23T04:50:08.893Z,93828.94
2022-11-23T04:52:35.513Z,93827.97
2022-11-23T04:55:02.097Z,93820.66
2022-11-23T04:57:28.684Z,93810.06
2022-11-23T04:59:55.294Z,93816.53
2022-11-23T05:02:21.887Z,93818.25
2022-11-23T05:04:48.493Z,93830.75
2022-11-23T05:07:15.150Z,93836.94
2022-11-23T05:09:41.739Z,93837.56
2022-11-23T05:12:08.320Z,93838.13
2022-11-23T05:14:34.903Z,93836.75
2022-11-23T05:17:04.540Z,93836.53
2022-11-23T05:19:31.432Z,93841.66
2022-11-23T05:21:58.225Z,93841.88
2022-11-23T05:24:24.805Z,93847.59
2022-11-23T05:26:56.031Z,93854.69
2022-11-23T05:29:22.998Z,93865.91
2022-11-23T05:31:49.585Z,93855.34
2022-11-23T05:34:16.320Z,93868.84
2022-11-23T05:36:43.012Z,93875.00
2022-11-23T05:39:09.732Z,93880.63
2022-11-23T05:41:36.360Z,93885.22
2022-11-23T05:44:03.033Z,93882.50
2022-11-23T05:46:29.758Z,93881.50
2022-11-23T05:48:56.384Z,93878.84
2022-11-23T05:51:23.024Z,93878.53
2022-11-23T05:53:49.584Z,93875.69
2022-11-23T05:56:16.199Z,93867.06
2022-11-23T05:58:42.781Z,93868.00
2022-11-23T06:01:09.400Z,93870.06
2022-11-23T06:03:36.059Z,93867.88
2022-11-23T06:06:02.678Z,93862.44
2022-11-23T06:08:29.276Z,93857.94
2022-11-23T06:10:55.847Z,93854.78
2022-11-23T06:13:22.501Z,93859.34
2022-11-23T06:15:49.111Z,93863.78
2022-11-23T06:18:15.708Z,93868.00
2022-11-23T06:20:42.392Z,93864.88
2022-11-23T06:23:08.971Z,93856.78
2022-11-23T06:25:36.294Z,93869.22
2022-11-23T06:28:03.052Z,93867.06
2022-11-23T06:30:30.268Z,93873.16
2022-11-23T06:32:57.385Z,93879.19
2022-11-23T06:35:24.361Z,93877.53
2022-11-23T06:37:52.053Z,93885.09
2022-11-23T06:40:18.788Z,93886.91
2022-11-23T06:42:45.518Z,93889.44
2022-11-23T06:45:12.671Z,93890.53
2022-11-23T06:47:39.488Z,93897.00
2022-11-23T06:50:06.578Z,93900.19
2022-11-23T06:52:33.238Z,93904.78
2022-11-23T06:54:59.857Z,93914.66
2022-11-23T06:57:26.609Z,93905.28
2022-11-23T06:59:53.316Z,93910.06
2022-11-23T07:02:19.963Z,93908.66
2022-11-23T07:04:46.660Z,93912.00
2022-11-23T07:07:13.420Z,93921.16
2022-11-23T07:09:40.170Z,93919.59
2022-11-23T07:12:07.089Z,93928.75
2022-11-23T07:14:33.838Z,93928.06
2022-11-23T07:17:00.823Z,93937.03
2022-11-23T07:19:27.629Z,93939.38
2022-11-23T07:21:54.289Z,93940.78
2022-11-23T07:24:21.173Z,93927.56
2022-11-23T07:26:47.809Z,93929.94
2022-11-23T07:29:14.559Z,93925.13
2022-11-23T07:31:41.375Z,93922.47
2022-11-23T07:34:08.020Z,93920.00
2022-11-23T07:36:35.257Z,93924.66
2022-11-23T07:39:01.989Z,93928.66
2022-11-23T07:41:28.744Z,93923.56
2022-11-23T07:43:56.511Z,93920.16
2022-11-23T07:46:23.226Z,93931.56
2022-11-23T07:48:49.880Z,93925.88
2022-11-23T07:51:18.213Z,93927.91
2022-11-23T07:53:44.875Z,93924.03
2022-11-23T07:56:11.544Z,93938.41
2022-11-23T07:58:38.141Z,93926.50
2022-11-23T08:01:05.004Z,93925.88
2022-11-23T08:03:31.689Z,93930.41
2022-11-23T08:05:58.429Z,93927.25
2022-11-23T08:08:25.228Z,93932.84
2022-11-23T08:10:54.300Z,93935.19
2022-11-23T08:13:22.686Z,93942.09
2022-11-23T08:15:54.372Z,93945.59
2022-11-23T08:18:25.112Z,93949.16
2022-11-23T08:20:52.801Z,93942.66
2022-11-23T08:23:20.652Z,93943.22
2022-11-23T08:25:47.585Z,93949.34
2022-11-23T08:28:14.207Z,93953.94
2022-11-23T08:30:41.079Z,93956.91
2022-11-23T08:33:09.104Z,93973.22
2022-11-23T08:35:37.505Z,93962.28
2022-11-23T08:38:05.391Z,93967.41
2022-11-23T08:40:32.276Z,93965.59
2022-11-23T08:42:59.142Z,93968.47
2022-11-23T08:45:26.044Z,93977.44
2022-11-23T08:47:53.159Z,93972.84
2022-11-23T08:50:21.091Z,93982.28
2022-11-23T08:52:47.996Z,93972.16
2022-11-23T08:55:14.704Z,93965.97
2022-11-23T08:57:41.317Z,93972.59
2022-11-23T09:00:08.609Z,93968.78
2022-11-23T09:02:35.211Z,93975.78
2022-11-23T09:05:01.804Z,93971.41
2022-11-23T09:07:28.486Z,93971.56
2022-11-23T09:09:55.104Z,93975.16
2022-11-23T09:12:21.680Z,93969.00
2022-11-23T09:14:48.309Z,93970.44
2022-11-23T09:17:14.900Z,93979.81
2022-11-23T09:19:41.599Z,93978.59
2022-11-23T09:22:08.186Z,93973.19
2022-11-23T09:24:35.059Z,93978.91
2022-11-23T09:27:02.045Z,93982.56
2022-11-23T09:29:28.702Z,93981.28
2022-11-23T09:31:55.392Z,93984.41
2022-11-23T09:34:22.144Z,93986.78
2022-11-23T09:36:50.967Z,93991.09
2022-11-23T09:39:17.593Z,93989.59
2022-11-23T09:42:12.979Z,93986.41
2022-11-23T09:45:11.848Z,93993.16
2022-11-23T09:48:14.944Z,93983.31
2022-11-23T09:51:04.151Z,93976.97
2022-11-23T09:53:47.470Z,93979.22
2022-11-23T09:56:30.480Z,93980.63
2022-11-23T09:59:11.261Z,93974.31
2022-11-23T10:01:38.083Z,93974.50
2022-11-23T10:04:07.195Z,93978.97
2022-11-23T10:06:40.693Z,93971.88
2022-11-23T10:09:34.571Z,93970.88
2022-11-23T10:12:18.832Z,93973.28
2022-11-23T10:15:04.624Z,93968.66
2022-11-23T10:18:05.149Z,93967.28
2022-11-23T10:20:50.436Z,93971.22
2022-11-23T10:23:42.155Z,93963.97
2022-11-23T10:26:19.281Z,93960.84
2022-11-23T10:28:47.379Z,93953.66
2022-11-23T10:31:18.332Z,93947.84
2022-11-23T10:34:14.036Z,93953.66
2022-11-23T10:36:41.954Z,93951.44
2022-11-23T10:39:22.278Z,93950.72
2022-11-23T10:41:51.278Z,93952.38
2022-11-23T10:44:18.032Z,93951.28
2022-11-23T10:46:45.513Z,93946.22
2022-11-23T10:49:28.629Z,93944.72
2022-11-23T10:51:58.533Z,93944.50
2022-11-23T10:54:41.621Z,93945.13
2022-11-23T10:57:44.816Z,93943.63
2022-11-23T11:00:11.883Z,93947.03
2022-11-23T11:02:50.543Z,93954.56
2022-11-23T11:06:01.060Z,93950.47
2022-11-23T11:08:18.058Z,93940.03
2022-11-23T11:10:56.812Z,93933.41
2022-11-23T11:13:39.666Z,93939.63
2022-11-23T11:16:25.392Z,93938.84
2022-11-23T11:18:52.048Z,93930.41
2022-11-23T11:21:33.942Z,93939.56
2022-11-23T11:24:04.288Z,93938.53
2022-11-23T11:26:33.704Z,93930.22
2022-11-23T11:29:07.548Z,93933.66
2022-11-23T11:31:45.101Z,93932.03
2022-11-23T11:34:23.537Z,93928.81
2022-11-23T11:37:02.381Z,93923.75
2022-11-23T11:39:38.281Z,93926.09
2022-11-23T11:42:13.352Z,93933.78
2022-11-23T11:44:43.356Z,93932.09
2022-11-23T11:47:27.149Z,93936.59
2022-11-23T11:49:59.204Z,93934.44
2022-11-23T11:52:34.929Z,93929.78
2022-11-23T11:55:12.023Z,93934.91
2022-11-23T11:57:54.773Z,93928.00
2022-11-23T12:00:21.931Z,93926.88
2022-11-23T12:02:57.577Z,93927.88
2022-11-23T12:05:36.792Z,93929.19
2022-11-23T12:08:41.421Z,93924.94
2022-11-23T12:11:12.589Z,93926.97
2022-11-23T12:13:44.400Z,93927.16
2022-11-23T12:16:33.798Z,93922.13
2022-11-23T12:19:09.535Z,93928.06
2022-11-23T12:22:06.186Z,93920.00
2022-11-23T12:25:05.837Z,93922.78
2022-11-23T12:28:09.838Z,93914.84
2022-11-23T12:30:42.144Z,93908.91
2022-11-23T12:33:08.724Z,93902.53
2022-11-23T12:35:41.112Z,93911.66
2022-11-23T12:38:28.710Z,93908.81
2022-11-23T12:41:19.749Z,93905.44
2022-11-23T12:44:20.206Z,93907.22
2022-11-23T12:47:16.047Z,93904.94
2022-11-23T12:49:59.928Z,93900.84
2022-11-23T12:52:47.563Z,93904.34
2022-11-23T12:55:51.665Z,93910.25
2022-11-23T12:58:30.453Z,93896.03
2022-11-23T13:01:05.634Z,93891.16
2022-11-23T13:04:08.971Z,93890.13
2022-11-23T13:07:26.981Z,93905.19
2022-11-23T13:09:58.307Z,93899.59
2022-11-23T13:12:39.605Z,93903.13
2022-11-23T13:15:24.583Z,93903.78
2022-11-23T13:18:09.680Z,93896.25
2022-11-23T13:21:03.773Z,93891.75
2022-11-23T13:23:37.160Z,93899.69
2022-11-23T13:26:25.141Z,93887.50
2022-11-23T13:28:54.385Z,93895.91
2022-11-23T13:31:30.271Z,93900.63
2022-11-23T13:34:00.700Z,93906.50
2022-11-23T13:37:04.270Z,93925.88
2022-11-23T13:39:44.363Z,93923.56
2022-11-23T13:42:12.509Z,93930.31
2022-11-23T13:44:39.184Z,93928.69
2022-11-23T13:47:07.877Z,93937.66
2022-11-23T13:50:07.878Z,93937.25
2022-11-23T13:52:34.557Z,93932.41
2022-11-23T13:55:13.290Z,93932.03
2022-11-23T13:57:45.460Z,93935.91
2022-11-23T14:00:49.852Z,93926.56
2022-11-23T14:03:51.837Z,93930.25
2022-11-23T14:06:27.117Z,93928.66
2022-11-23T14:09:03.106Z,93937.56
2022-11-23T14:11:39.796Z,93930.94
2022-11-23T14:14:20.121Z,93932.97
2022-11-23T14:17:24.985Z,93927.47
2022-11-23T14:20:08.902Z,93940.41
2022-11-23T14:22:57.228Z,93942.66
2022-11-23T14:25:52.755Z,93948.22
2022-11-23T14:28:37.644Z,93948.22
2022-11-23T14:31:31.979Z,93938.03
2022-11-23T14:34:23.687Z,93940.97
2022-11-23T14:37:17.193Z,93930.03
2022-11-23T14:40:09.800Z,93918.00
2022-11-23T14:42:45.882Z,93939.81
2022-11-23T14:45:15.447Z,93945.31
2022-11-23T14:47:42.104Z,93928.22
2022-11-23T14:50:23.768Z,93929.03
2022-11-23T14:52:52.406Z,93936.22
2022-11-23T14:55:30.521Z,93942.41
2022-11-23T14:58:05.254Z,93952.00
2022-11-23T15:00:35.673Z,93947.94
2022-11-23T15:03:42.675Z,93949.84
2022-11-23T15:06:14.189Z,93953.66
2022-11-23T15:09:03.249Z,93981.69
2022-11-23T15:11:35.625Z,93987.47
2022-11-23T15:14:02.352Z,93991.91
2022-11-23T15:16:29.756Z,93999.97
2022-11-23T15:18:56.694Z,94005.53
2022-11-23T15:21:27.845Z,94018.84
2022-11-23T15:23:57.867Z,94015.75
2022-11-23T15:29:38.506Z,94030.06
2022-11-23T15:32:33.303Z,94048.81
2022-11-23T15:35:21.975Z,94043.59
2022-11-23T15:37:50.536Z,94033.66
2022-11-23T15:40:19.349Z,94045.06
2022-11-23T15:42:49.560Z,94051.34
2022-11-23T15:45:34.756Z,94077.06
2022-11-23T15:48:17.904Z,94076.47
2022-11-23T15:51:06.672Z,94097.31
2022-11-23T15:53:49.072Z,94129.78
2022-11-23T15:56:25.537Z,94146.09
2022-11-23T15:58:54.403Z,94156.66
2022-11-23T16:01:22.720Z,94132.94
2022-11-23T16:04:00.459Z,94149.50
2022-11-23T16:06:46.802Z,94160.72
2022-11-23T16:09:53.285Z,94203.72
2022-11-23T16:12:29.078Z,94184.63
2022-11-23T16:14:58.483Z,94192.97
2022-11-23T16:17:28.297Z,94188.97
2022-11-23T16:19:58.072Z,94193.44
2022-11-23T16:22:33.450Z,94199.97
2022-11-23T16:25:07.124Z,94203.69
2022-11-23T16:27:34.880Z,94207.16
2022-11-23T16:30:03.451Z,94224.00
2022-11-23T16:32:32.259Z,94232.44
2022-11-23T16:35:15.363Z,94229.47
2022-11-23T16:37:42.140Z,94220.97
2022-11-23T16:40:11.006Z,94228.00
2022-11-23T16:42:37.979Z,94236.34
2022-11-23T16:45:05.040Z,94241.44
2022-11-23T16:47:31.680Z,94255.53
2022-11-23T16:49:58.376Z,94252.31
2022-11-23T16:52:25.728Z,94257.53
2022-11-23T16:54:52.465Z,94264.13
2022-11-23T16:57:33.327Z,94287.53
2022-11-23T17:00:04.838Z,94301.13
2022-11-23T17:02:31.578Z,94299.91
2022-11-23T17:04:59.481Z,94317.13
2022-11-23T17:07:26.257Z,94311.03
2022-11-23T17:09:52.954Z,94309.50
2022-11-23T17:12:20.787Z,94308.56
2022-11-23T17:14:50.074Z,94312.66
2022-11-23T17:17:22.438Z,94330.81
2022-11-23T17:19:50.457Z,94341.13
2022-11-23T17:22:18.641Z,94325.84
2022-11-23T17:24:46.958Z,94327.09
2022-11-23T17:27:22.160Z,94339.47
2022-11-23T17:29:59.044Z,94352.88
2022-11-23T17:32:26.138Z,94373.19
2022-11-23T17:34:52.996Z,94384.44
2022-11-23T17:37:24.617Z,94376.00
2022-11-23T17:39:51.357Z,94384.56
2022-11-23T17:42:18.152Z,94399.09
2022-11-23T17:44:44.838Z,94398.81
2022-11-23T17:47:28.902Z,94412.53
2022-11-23T17:49:56.612Z,94410.28
2022-11-23T17:52:24.193Z,94407.03
2022-11-23T17:54:51.498Z,94408.69
2022-11-23T17:57:22.766Z,94420.44
2022-11-23T17:59:49.955Z,94441.41
2022-11-23T18:02:16.692Z,94430.88
2022-11-23T18:04:43.391Z,94435.66
2022-11-23T18:07:14.140Z,94446.28
2022-11-23T18:09:41.409Z,94470.00
2022-11-23T18:12:09.615Z,94478.44
2022-11-23T18:14:38.105Z,94488.59
2022-11-23T18:17:04.747Z,94515.13
2022-11-23T18:19:31.690Z,94515.47
2022-11-23T18:21:58.579Z,94525.03
2022-11-23T18:24:25.261Z,94539.69
2022-11-23T18:26:51.944Z,94547.69
2022-11-23T18:29:18.791Z,94545.41
2022-11-23T18:31:45.477Z,94541.91
2022-11-23T18:34:12.124Z,94544.28
2022-11-23T18:36:38.804Z,94547.03
2022-11-23T18:39:05.654Z,94554.56
2022-11-23T18:41:32.312Z,94566.38
2022-11-23T18:43:58.958Z,94568.09
2022-11-23T18:46:25.725Z,94560.28
2022-11-23T18:48:52.405Z,94563.00
2022-11-23T18:51:19.098Z,94557.31
2022-11-23T18:53:45.775Z,94566.72
2022-11-23T18:56:12.439Z,94569.81
2022-11-23T18:58:42.559Z,94575.38
2022-11-23T19:01:12.940Z,94584.72
2022-11-23T19:03:41.911Z,94588.19
2022-11-23T19:06:11.024Z,94591.53
2022-11-23T19:08:43.625Z,94596.00
2022-11-23T19:11:19.398Z,94599.34
2022-11-23T19:13:48.877Z,94604.97
2022-11-23T19:16:24.126Z,94608.97
2022-11-23T19:18:59.336Z,94614.50
2022-11-23T19:21:28.545Z,94613.22
2022-11-23T19:23:57.169Z,94620.44
2022-11-23T19:26:25.324Z,94628.00
2022-11-23T19:28:53.977Z,94631.81
2022-11-23T19:31:26.629Z,94629.28
2022-11-23T19:33:58.146Z,94641.66
2022-11-23T19:36:25.692Z,94639.53
2022-11-23T19:38:52.955Z,94650.72
2022-11-23T19:41:19.668Z,94654.78
2022-11-23T19:43:46.388Z,94660.25
2022-11-23T19:46:14.554Z,94658.44
2022-11-23T19:48:41.319Z,94672.97
2022-11-23T19:51:12.261Z,94673.47
2022-11-23T19:53:40.704Z,94683.34
2022-11-23T19:56:15.800Z,94673.09
2022-11-23T19:58:44.044Z,94683.72
2022-11-23T20:01:16.039Z,94676.63
2022-11-23T20:03:45.330Z,94678.16
2022-11-23T20:06:20.858Z,94687.78
2022-11-23T20:08:56.128Z,94690.16
2022-11-23T20:11:23.622Z,94692.38
2022-11-23T20:13:50.959Z,94693.66
2022-11-23T20:16:19.940Z,94688.56
2022-11-23T20:18:48.244Z,94684.94
2022-11-23T20:21:20.365Z,94694.13
2022-11-23T20:23:47.958Z,94701.94
2022-11-23T20:26:17.157Z,94696.69
2022-11-23T20:28:43.777Z,94702.34
2022-11-23T20:31:22.684Z,94711.88
2022-11-23T20:33:49.921Z,94716.69
2022-11-23T20:36:25.632Z,94727.97
2022-11-23T20:38:53.722Z,94723.25
2022-11-23T20:41:22.017Z,94718.59
2022-11-23T20:43:52.370Z,94716.91
2022-11-23T20:46:38.187Z,94726.59
2022-11-23T20:49:06.144Z,94721.84
2022-11-23T20:51:32.866Z,94722.09
2022-11-23T20:53:59.574Z,94724.88
2022-11-23T20:56:27.524Z,94735.66
2022-11-23T20:58:56.456Z,94732.66
2022-11-23T21:01:23.789Z,94730.75
2022-11-23T21:03:53.564Z,94732.16
2022-11-23T21:06:21.284Z,94733.69
2022-11-23T21:08:49.594Z,94730.44
2022-11-23T21:11:17.989Z,94730.91
2022-11-23T21:13:49.672Z,94726.19
2022-11-23T21:16:16.683Z,94729.59
2022-11-23T21:18:43.382Z,94733.66
2022-11-23T21:21:10.194Z,94735.44
2022-11-23T21:23:36.829Z,94737.13
2022-11-23T21:26:05.198Z,94740.31
2022-11-23T21:28:33.256Z,94751.03
2022-11-23T21:31:10.301Z,94745.19
2022-11-23T21:33:37.905Z,94746.63
2022-11-23T21:36:06.138Z,94752.97
2022-11-23T21:38:34.861Z,94761.94
2022-11-23T21:41:02.889Z,94761.81
2022-11-23T21:43:29.969Z,94759.94
2022-11-23T21:46:09.100Z,94767.31
2022-11-23T21:48:37.325Z,94768.53
2022-11-23T21:51:13.315Z,94769.72
2022-11-23T21:53:40.354Z,94771.91
2022-11-23T21:56:10.743Z,94778.66
2022-11-23T21:58:38.324Z,94782.88
2022-11-23T22:01:17.375Z,94784.63
2022-11-23T22:03:56.140Z,94790.25
2022-11-23T22:06:23.093Z,94795.69
2022-11-23T22:08:52.659Z,94801.13
2022-11-23T22:11:21.178Z,94804.00
2022-11-23T22:13:52.964Z,94814.31
2022-11-23T22:16:28.640Z,94818.97
2022-11-23T22:18:56.775Z,94808.81
2022-11-23T22:21:25.851Z,94818.69
2022-11-23T22:23:53.539Z,94827.25
2022-11-23T22:26:21.555Z,94825.66
2022-11-23T22:28:51.256Z,94833.84
2022-11-23T22:31:21.268Z,94836.88
2022-11-23T22:33:48.768Z,94832.75
2022-11-23T22:36:18.511Z,94828.00
2022-11-23T22:38:45.744Z,94825.63
2022-11-23T22:41:15.651Z,94838.66
2022-11-23T22:43:43.608Z,94835.81
2022-11-23T22:46:22.645Z,94849.75
2022-11-23T22:48:50.696Z,94844.72
2022-11-23T22:51:25.209Z,94849.16
2022-11-23T22:53:56.067Z,94847.75
2022-11-23T22:56:23.208Z,94846.25
2022-11-23T22:58:50.089Z,94843.53
2022-11-23T23:01:22.784Z,94844.25
2022-11-23T23:03:57.476Z,94848.94
2022-11-23T23:06:27.792Z,94848.69
2022-11-23T23:08:57.742Z,94848.56
2022-11-23T23:11:26.634Z,94850.41
2022-11-23T23:13:53.557Z,94851.19
2022-11-23T23:16:21.212Z,94852.31
2022-11-23T23:18:48.327Z,94859.91
2022-11-23T23:21:18.240Z,94862.53
2022-11-23T23:23:47.621Z,94864.22
2022-11-23T23:26:17.137Z,94867.16
2022-11-23T23:28:44.057Z,94868.75
2022-11-23T23:31:14.737Z,94873.88
2022-11-23T23:33:42.704Z,94884.16
2022-11-23T23:36:16.071Z,94881.34
2022-11-23T23:38:43.699Z,94890.28
2022-11-23T23:41:12.209Z,94894.59
2022-11-23T23:43:40.003Z,94903.50
2022-11-23T23:46:09.437Z,94903.13
2022-11-23T23:48:38.550Z,94912.13
2022-11-23T23:51:07.116Z,94911.03
2022-11-23T23:53:35.211Z,94910.91
2022-11-23T23:56:05.292Z,94915.22
2022-11-23T23:58:31.985Z,94922.91
